createdAt,value
2017-07-01T00:00:03.151Z,1005.35
2017-07-01T00:05:03.255Z,1005.35
2017-07-01T00:10:02.703Z,1005.38
2017-07-01T00:15:02.993Z,1005.37
2017-07-01T00:20:03.347Z,1005.23
2017-07-01T00:25:02.642Z,1005.31
2017-07-01T00:30:03.029Z,1005.27
2017-07-01T00:35:03.413Z,1005.22
2017-07-01T00:40:02.851Z,1005.25
2017-07-01T00:45:03.290Z,1005.24
2017-07-01T00:50:02.615Z,1005.14
2017-07-01T00:55:02.983Z,1005.06
2017-07-01T01:00:03.368Z,1005.04
2017-07-01T01:05:02.626Z,1004.94
2017-07-01T01:10:03.049Z,1004.92
2017-07-01T01:15:03.375Z,1004.95
2017-07-01T01:20:02.952Z,1004.89
2017-07-01T01:25:03.185Z,1004.92
2017-07-01T01:30:02.535Z,1004.92
2017-07-01T01:35:02.840Z,1004.9
2017-07-01T01:40:03.291Z,1004.87
2017-07-01T01:45:02.550Z,1004.86
2017-07-01T01:50:03.081Z,1004.81
2017-07-01T01:55:03.472Z,1004.82
2017-07-01T02:00:02.757Z,1004.72
2017-07-01T02:05:03.171Z,1004.73
2017-07-01T02:10:02.583Z,1004.7
2017-07-01T02:15:02.988Z,1004.79
2017-07-01T02:20:03.357Z,1004.71
2017-07-01T02:25:02.666Z,1004.64
2017-07-01T02:30:03.122Z,1004.63
2017-07-01T02:35:03.462Z,1004.52
2017-07-01T02:40:02.771Z,1004.49
2017-07-01T02:45:03.064Z,1004.5
2017-07-01T02:50:03.305Z,1004.43
2017-07-01T02:55:02.586Z,1004.37
2017-07-01T03:00:03.013Z,1004.41
2017-07-01T03:05:03.263Z,1004.42
2017-07-01T03:10:02.710Z,1004.44
2017-07-01T03:15:03.037Z,1004.39
2017-07-01T03:20:03.340Z,1004.45
2017-07-01T03:25:02.780Z,1004.43
2017-07-01T03:30:03.457Z,1004.47
2017-07-01T03:35:02.770Z,1004.41
2017-07-01T03:40:03.160Z,1004.41
2017-07-01T03:45:03.374Z,1004.41
2017-07-01T03:50:02.718Z,1004.45
2017-07-01T03:55:03.041Z,1004.32
2017-07-01T04:00:03.575Z,1004.33
2017-07-01T04:05:02.934Z,1004.44
2017-07-01T04:10:03.550Z,1004.28
2017-07-01T04:15:02.763Z,1004.33
2017-07-01T04:20:03.214Z,1004.29
2017-07-01T04:25:02.651Z,1004.35
2017-07-01T04:30:03.280Z,1004.42
2017-07-01T04:35:02.602Z,1004.4
2017-07-01T04:40:03.110Z,1004.41
2017-07-01T04:45:03.486Z,1004.41
2017-07-01T04:50:02.796Z,1004.43
2017-07-01T04:55:03.192Z,1004.5
2017-07-01T05:00:02.888Z,1004.52
2017-07-01T05:05:03.158Z,1004.57
2017-07-01T05:10:02.614Z,1004.53
2017-07-01T05:15:03.325Z,1004.51
2017-07-01T05:20:02.634Z,1004.59
2017-07-01T05:25:03.080Z,1004.59
2017-07-01T05:30:04.209Z,1004.62
2017-07-01T05:35:03.517Z,1004.65
2017-07-01T05:40:02.920Z,1004.74
2017-07-01T05:45:03.729Z,1004.78
2017-07-01T05:50:03.018Z,1004.78
2017-07-01T05:55:03.326Z,1004.9
2017-07-01T06:00:02.666Z,1004.95
2017-07-01T06:05:03.109Z,1005.02
2017-07-01T06:10:02.583Z,1005.07
2017-07-01T06:15:02.888Z,1005.14
2017-07-01T06:25:02.931Z,1005.21
2017-07-01T06:30:03.664Z,1005.2
2017-07-01T06:35:03.037Z,1005.3
2017-07-01T06:40:03.402Z,1005.28
2017-07-01T06:45:02.670Z,1005.32
2017-07-01T06:50:03.085Z,1005.33
2017-07-01T06:55:03.466Z,1005.35
2017-07-01T07:00:02.777Z,1005.41
2017-07-01T07:05:03.203Z,1005.45
2017-07-01T07:10:02.643Z,1005.5
2017-07-01T07:15:03.222Z,1005.5
2017-07-01T07:20:02.605Z,1005.56
2017-07-01T07:25:02.852Z,1005.61
2017-07-01T07:30:04.440Z,1005.6
2017-07-01T07:35:02.844Z,1005.66
2017-07-01T07:40:03.316Z,1005.7
2017-07-01T07:45:02.550Z,1005.71
2017-07-01T07:50:02.970Z,1005.76
2017-07-01T07:55:03.389Z,1005.78
2017-07-01T08:00:02.756Z,1005.77
2017-07-01T08:05:03.186Z,1005.83
2017-07-01T08:10:02.778Z,1005.87
2017-07-01T08:15:03.209Z,1005.92
2017-07-01T08:20:02.765Z,1006.01
2017-07-01T08:25:03.450Z,1006.02
2017-07-01T08:30:03.144Z,1006.09
2017-07-01T08:35:02.690Z,1006.2
2017-07-01T08:40:02.520Z,1006.28
2017-07-01T08:45:02.915Z,1006.34
2017-07-01T08:50:03.499Z,1006.44
2017-07-01T08:55:03.000Z,1006.52
2017-07-01T09:00:02.588Z,1006.52
2017-07-01T09:05:03.268Z,1006.53
2017-07-01T09:10:03.268Z,1006.5
2017-07-01T09:15:02.908Z,1006.6
2017-07-01T09:20:02.861Z,1006.63
2017-07-01T09:25:03.146Z,1006.65
2017-07-01T09:30:03.363Z,1006.72
2017-07-01T09:35:03.050Z,1006.71
2017-07-01T09:40:03.163Z,1006.83
2017-07-01T09:45:03.018Z,1006.9
2017-07-01T09:50:03.090Z,1006.96
2017-07-01T09:55:03.049Z,1007.03
2017-07-01T10:00:03.501Z,1007.03
2017-07-01T10:05:02.870Z,1007.15
2017-07-01T10:10:02.818Z,1007.18
2017-07-01T10:15:03.348Z,1007.28
2017-07-01T10:20:03.031Z,1007.35
2017-07-01T10:25:02.985Z,1007.43
2017-07-01T10:30:03.286Z,1007.52
2017-07-01T10:35:02.666Z,1007.6
2017-07-01T10:40:02.727Z,1007.68
2017-07-01T10:45:02.545Z,1007.7
2017-07-01T10:50:02.741Z,1007.78
2017-07-01T10:55:03.006Z,1007.85
2017-07-01T11:00:02.800Z,1007.89
2017-07-01T11:05:03.343Z,1007.86
2017-07-01T11:10:03.149Z,1007.9
2017-07-01T11:15:03.377Z,1007.89
2017-07-01T11:20:02.850Z,1007.95
2017-07-01T11:25:02.841Z,1007.96
2017-07-01T11:30:02.631Z,1008.09
2017-07-01T11:35:02.641Z,1008.13
2017-07-01T11:40:02.938Z,1008.14
2017-07-01T11:45:03.179Z,1008.22
2017-07-01T11:50:02.560Z,1008.34
2017-07-01T11:55:02.897Z,1008.36
2017-07-01T12:00:03.210Z,1008.44
2017-07-01T12:05:03.365Z,1008.52
2017-07-01T12:10:02.887Z,1008.52
2017-07-01T12:15:02.986Z,1008.62
2017-07-01T12:20:03.028Z,1008.65
2017-07-01T12:25:03.335Z,1008.79
2017-07-01T12:30:02.545Z,1008.85
2017-07-01T12:35:02.665Z,1009
2017-07-01T12:40:02.999Z,1009.07
2017-07-01T12:45:02.550Z,1009.12
2017-07-01T12:50:03.386Z,1009.2
2017-07-01T12:55:02.571Z,1009.26
2017-07-01T13:00:02.745Z,1009.35
2017-07-01T13:05:03.364Z,1009.41
2017-07-01T13:10:03.300Z,1009.45
2017-07-01T13:15:02.591Z,1009.5
2017-07-01T13:20:02.535Z,1009.56
2017-07-01T13:25:03.438Z,1009.7
2017-07-01T13:30:02.828Z,1009.73
2017-07-01T13:35:02.911Z,1009.85
2017-07-01T13:40:03.056Z,1009.82
2017-07-01T13:45:03.337Z,1009.95
2017-07-01T13:50:03.516Z,1010
2017-07-01T13:55:02.527Z,1009.96
2017-07-01T14:00:02.807Z,1010.04
2017-07-01T14:05:03.324Z,1010.13
2017-07-01T14:10:02.706Z,1010.2
2017-07-01T14:15:02.898Z,1010.29
2017-07-01T14:20:03.338Z,1010.42
2017-07-01T14:25:02.804Z,1010.49
2017-07-01T14:30:03.175Z,1010.57
2017-07-01T14:35:02.806Z,1010.57
2017-07-01T14:40:03.295Z,1010.71
2017-07-01T14:45:02.747Z,1010.84
2017-07-01T14:50:03.163Z,1010.99
2017-07-01T14:55:02.613Z,1011
2017-07-01T15:00:03.002Z,1011.09
2017-07-01T15:05:02.724Z,1011.14
2017-07-01T15:10:03.104Z,1011.16
2017-07-01T15:15:03.678Z,1011.29
2017-07-01T15:20:03.210Z,1011.35
2017-07-01T15:25:03.511Z,1011.42
2017-07-01T15:30:02.888Z,1011.5
2017-07-01T15:35:03.241Z,1011.49
2017-07-01T15:40:02.668Z,1011.58
2017-07-01T15:45:02.951Z,1011.5
2017-07-01T15:50:03.162Z,1011.52
2017-07-01T15:55:02.566Z,1011.59
2017-07-01T16:00:03.273Z,1011.67
2017-07-01T16:05:02.798Z,1011.66
2017-07-01T16:10:02.750Z,1011.83
2017-07-01T16:15:02.641Z,1011.79
2017-07-01T16:20:02.714Z,1011.8
2017-07-01T16:25:03.014Z,1011.85
2017-07-01T16:30:03.151Z,1011.9
2017-07-01T16:35:03.286Z,1011.89
2017-07-01T16:40:02.766Z,1011.97
2017-07-01T16:45:02.900Z,1011.98
2017-07-01T16:50:03.020Z,1012.01
2017-07-01T16:55:03.294Z,1012.13
2017-07-01T17:00:02.600Z,1012.12
2017-07-01T17:05:02.760Z,1012.17
2017-07-01T17:10:03.194Z,1012.22
2017-07-01T17:15:03.432Z,1012.27
2017-07-01T17:20:02.907Z,1012.32
2017-07-01T17:25:03.126Z,1012.36
2017-07-01T17:30:02.977Z,1012.4
2017-07-01T17:35:03.250Z,1012.46
2017-07-01T17:40:03.543Z,1012.52
2017-07-01T17:45:02.612Z,1012.47
2017-07-01T17:50:02.776Z,1012.46
2017-07-01T17:55:02.623Z,1012.44
2017-07-01T18:00:03.296Z,1012.48
2017-07-01T18:05:02.664Z,1012.54
2017-07-01T18:10:03.405Z,1012.55
2017-07-01T18:15:02.655Z,1012.6
2017-07-01T18:20:02.708Z,1012.8
2017-07-01T18:25:02.841Z,1012.78
2017-07-01T18:30:03.063Z,1012.79
2017-07-01T18:35:03.408Z,1012.79
2017-07-01T18:40:02.662Z,1012.82
2017-07-01T18:45:02.651Z,1012.92
2017-07-01T18:50:02.817Z,1012.98
2017-07-01T18:55:02.846Z,1013.11
2017-07-01T19:00:03.106Z,1013.14
2017-07-01T19:05:02.617Z,1013.25
2017-07-01T19:10:03.491Z,1013.35
2017-07-01T19:15:02.617Z,1013.36
2017-07-01T19:20:03.453Z,1013.45
2017-07-01T19:25:03.470Z,1013.57
2017-07-01T19:30:02.719Z,1013.65
2017-07-01T19:35:02.675Z,1013.71
2017-07-01T19:40:02.865Z,1013.81
2017-07-01T19:45:03.291Z,1013.94
2017-07-01T19:50:02.845Z,1014.05
2017-07-01T19:55:03.125Z,1014.13
2017-07-01T20:00:03.438Z,1014.27
2017-07-01T20:05:03.092Z,1014.37
2017-07-01T20:10:02.593Z,1014.52
2017-07-01T20:15:02.725Z,1014.61
2017-07-01T20:20:02.857Z,1014.73
2017-07-01T20:25:02.690Z,1014.77
2017-07-01T20:30:03.012Z,1014.77
2017-07-01T20:35:03.414Z,1014.86
2017-07-01T20:40:02.656Z,1014.92
2017-07-01T20:45:02.741Z,1014.94
2017-07-01T20:50:02.951Z,1014.96
2017-07-01T20:55:03.167Z,1014.94
2017-07-01T21:00:03.376Z,1014.98
2017-07-01T21:05:03.251Z,1015.01
2017-07-01T21:10:03.518Z,1015.14
2017-07-01T21:15:03.171Z,1015.15
2017-07-01T21:20:03.293Z,1015.18
2017-07-01T21:25:02.966Z,1015.21
2017-07-01T21:30:02.964Z,1015.21
2017-07-01T21:35:02.675Z,1015.38
2017-07-01T21:40:03.339Z,1015.42
2017-07-01T21:45:02.807Z,1015.46
2017-07-01T21:50:03.318Z,1015.45
2017-07-01T21:55:02.756Z,1015.55
2017-07-01T22:00:03.216Z,1015.61
2017-07-01T22:05:02.657Z,1015.66
2017-07-01T22:10:03.031Z,1015.73
2017-07-01T22:15:03.391Z,1015.81
2017-07-01T22:20:02.723Z,1015.86
2017-07-01T22:25:03.156Z,1015.82
2017-07-01T22:30:02.630Z,1015.83
2017-07-01T22:35:03.030Z,1015.85
2017-07-01T22:40:03.501Z,1015.87
2017-07-01T22:45:02.870Z,1015.9
2017-07-01T22:50:03.254Z,1015.88
2017-07-01T22:55:02.524Z,1015.86
2017-07-01T23:00:03.004Z,1015.94
2017-07-01T23:05:02.643Z,1015.88
2017-07-01T23:10:03.013Z,1015.92
2017-07-01T23:15:02.571Z,1015.92
2017-07-01T23:20:02.925Z,1015.97
2017-07-01T23:25:03.363Z,1015.97
2017-07-01T23:30:02.611Z,1015.94
2017-07-01T23:35:03.051Z,1015.99
2017-07-01T23:40:03.480Z,1015.9
2017-07-01T23:45:02.908Z,1015.93
2017-07-01T23:50:03.296Z,1015.97
2017-07-01T23:55:02.573Z,1015.96
